Time;durP1;ratioP1;P1;durP2;ratioP2;P2;SDS_P1;SDS_P2;PMS_P1;PMS_P2;Temp;Humidity;BMP_temperature;BMP_pressure;BME280_temperature;BME280_humidity;BME280_pressure;Samples;Min_cycle;Max_cycle;Signal;HPM_P1;HPM_P2
2022/08/27 10:38:56;;;;;;;;;;;;;;;;;;5006050;28;19968;-89
2022/08/27 10:41:26;;;;;;;;;;;;;;;;;;5006780;28;19914;-88
2022/08/27 10:43:54;;;;;;;;;;;;;;;;;;5005898;28;19918;-89
2022/08/27 10:46:22;;;;;;;;;;;;;;;;;;5009351;28;19914;-89
2022/08/27 10:48:52;;;;;;;;;;;;;;;;;;5007298;28;19960;-90
2022/08/27 10:51:20;;;;;;;;;;;;;;;;;;5006664;28;19921;-89
2022/08/27 10:53:45;;;;;;;;;;;;;;;;;;5010662;28;20275;-89
2022/08/27 10:56:13;;;;;;;;;;;;;;;;;;5011607;28;19936;-89
2022/08/27 10:58:38;;;;;;;;;;;;;;;;;;5006674;28;19940;-89
2022/08/27 11:01:03;;;;;;;;;;;;;;;;;;5004521;28;19914;-90
2022/08/27 11:03:28;;;;;;;;;;;;;;;;;;5007381;28;20395;-91
2022/08/27 11:05:56;;;;;;;;;;;;;;;;;;5001201;28;19921;-90
2022/08/27 11:08:27;;;;;;;;;;;;;;;;;;5013415;28;19923;-90
2022/08/27 11:11:13;;;;;;;;;;;;;;;;;;5009206;28;19918;-89
2022/08/27 11:13:38;;;;;;;;;;;;;;;;;;5006491;28;19917;-90
2022/08/27 11:16:21;;;;;;;;;;;;;;;;;;5022558;28;19913;-90
2022/08/27 11:18:46;;;;;;;;;;;;;;;;;;5004847;28;19918;-89
2022/08/27 11:21:14;;;;;;;;;;;;;;;;;;5002654;28;19925;-90
2022/08/27 11:23:39;;;;;;;;;;;;;;;;;;5003909;28;19921;-90
2022/08/27 11:26:05;;;;;;;;;;;;;;;;;;5005912;28;19976;-90
2022/08/27 11:28:30;;;;;;;;;;;;;;;;;;5008049;28;19918;-90
2022/08/27 11:30:55;;;;;;;;;;;;;;;;;;5006426;28;19921;-90
2022/08/27 11:33:21;;;;;;;;;;;;;;;;;;5008964;28;20625;-90
2022/08/27 11:35:46;;;;;;;;;;;;;;;;;;5010585;28;19956;-89
2022/08/27 11:38:11;;;;;;;;;;;;;;;;;;5003012;28;20004;-89
2022/08/27 11:40:37;;;;;;;;;;;;;;;;;;5009898;28;19913;-89
2022/08/27 11:43:02;;;;;;;;;;;;;;;;;;5007349;28;19944;-89
2022/08/27 11:45:28;;;;;;;;;;;;;;;;;;4997692;28;19945;-89
2022/08/27 11:47:53;;;;;;;;;;;;;;;;;;5007757;28;19921;-89
2022/08/27 11:50:19;;;;;;;;;;;;;;;;;;5012997;28;20626;-89
2022/08/27 11:52:44;;;;;;;;;;;;;;;;;;5012509;28;19992;-89
2022/08/27 11:55:09;;;;;;;;;;;;;;;;;;5004457;28;19918;-90
2022/08/27 11:57:37;;;;;;;;;;;;;;;;;;5009038;28;19918;-88
2022/08/27 12:00:02;;;;;;;;;;;;;;;;;;5006343;28;19917;-89
2022/08/27 12:02:28;;;;;;;;;;;;;;;;;;5013500;28;20031;-89
2022/08/27 12:04:54;;;;;;;;;;;;;;;;;;5006596;28;19918;-89
2022/08/27 12:07:21;;;;;;;;;;;;;;;;;;5010626;28;20039;-89
2022/08/27 12:09:46;;;;;;;;;;;;;;;;;;5010492;28;19993;-89
2022/08/27 12:12:11;;;;;;;;;;;;;;;;;;5011207;28;20011;-89
2022/08/27 12:14:36;;;;;;;;;;;;;;;;;;4998990;28;20099;-89
2022/08/27 12:17:02;;;;;;;;;;;;;;;;;;5001985;28;20284;-89
2022/08/27 12:19:27;;;;;;;;;;;;;;;;;;5012535;28;19913;-89
2022/08/27 12:21:52;;;;;;;;;;;;;;;;;;5011380;28;19910;-89
2022/08/27 12:24:17;;;;;;;;;;;;;;;;;;5012879;28;19924;-89
2022/08/27 12:26:43;;;;;;;;;;;;;;;;;;5004019;28;19917;-90
2022/08/27 12:29:08;;;;;;;;;;;;;;;;;;5006710;28;19914;-89
2022/08/27 12:31:33;;;;;;;;;;;;;;;;;;5007670;28;19917;-89
2022/08/27 12:33:58;;;;;;;;;;;;;;;;;;5011102;28;19963;-89
2022/08/27 12:36:24;;;;;;;;;;;;;;;;;;5010585;28;19921;-89
2022/08/27 12:38:49;;;;;;;;;;;;;;;;;;5007192;28;19914;-89
2022/08/27 12:41:14;;;;;;;;;;;;;;;;;;5011041;28;19956;-88
2022/08/27 12:43:42;;;;;;;;;;;;;;;;;;5011844;28;19920;-89
2022/08/27 12:46:07;;;;;;;;;;;;;;;;;;5020222;28;19913;-89
2022/08/27 12:48:33;;;;;;;;;;;;;;;;;;5007322;28;19921;-89
2022/08/27 12:50:58;;;;;;;;;;;;;;;;;;5004954;28;20306;-90
2022/08/27 12:53:23;;;;;;;;;;;;;;;;;;5010319;28;19913;-90
2022/08/27 12:55:48;;;;;;;;;;;;;;;;;;5006373;28;20487;-89
2022/08/27 12:58:13;;;;;;;;;;;;;;;;;;5011892;28;19913;-88
2022/08/27 13:00:38;;;;;;;;;;;;;;;;;;5011809;28;19921;-89
2022/08/27 13:03:05;;;;;;;;;;;;;;;;;;5012289;28;19913;-88
2022/08/27 13:05:31;;;;;;;;;;;;;;;;;;5013104;28;19917;-89
2022/08/27 13:07:57;;;;;;;;;;;;;;;;;;4997826;28;19979;-89
2022/08/27 13:10:22;;;;;;;;;;;;;;;;;;5012593;28;19921;-89
2022/08/27 13:12:48;;;;;;;;;;;;;;;;;;5016115;28;19920;-89
2022/08/27 13:15:13;;;;;;;;;;;;;;;;;;5019015;28;19909;-89
2022/08/27 13:17:38;;;;;;;;;;;;;;;;;;5014096;28;19914;-90
2022/08/27 13:20:03;;;;;;;;;;;;;;;;;;5013535;28;19925;-89
2022/08/27 13:30:51;;;;;;;;;;;;;;;;;;5012463;28;19920;-90
2022/08/27 13:47:27;;;;;;;;;;;;;;;;;;4898320;29;19922;-91
2022/08/27 13:51:02;;;;;;;;;;;;;;;;;;;;;
2022/08/27 13:58:24;;;;;;;;;;;;;;;;;;4931078;29;19919;-89
2022/08/27 14:01:02;;;;;;;;;;;;;;;;;;;;;
2022/08/27 14:15:03;;;;;;;;;;;;;;;;;;;;;
2022/08/27 14:43:11;;;;;;;;;;;;;;;;;;;;;
2022/08/27 14:51:33;;;;;;;;;;;;;;;;;;4891192;29;19921;-90
2022/08/27 14:54:07;;;;;;;;;;;;;;;;;;4893793;29;19961;-92
2022/08/27 14:56:32;;;;;;;;;;;;;;;;;;4894915;29;19926;-88
2022/08/27 15:04:32;;;;;;;;;;;;;;;;;;4998140;28;19918;-88
2022/08/27 15:07:09;;;;;;;;;;;;;;;;;;5006451;28;20274;-89
2022/08/27 15:12:37;;;;;;;;;;;;;;;;;;5002761;28;19921;-88
2022/08/27 15:18:09;;;;;;;;;;;;;;;;;;5005916;28;19993;-87
2022/08/27 15:20:35;;;;;;;;;;;;;;;;;;5008416;28;20676;-88
2022/08/27 15:23:06;;;;;;;;;;;;;;;;;;5017216;28;20004;-88
2022/08/27 15:25:34;;;;;;;;;;;;;;;;;;5008739;28;20035;-88
2022/08/27 15:28:20;;;;;;;;;;;;;;;;;;5013689;28;20279;-88
2022/08/27 15:33:42;;;;;;;;;;;;;;;;;;;;;
2022/08/27 15:38:56;;;;;;;;;;;;;;;;;;5005220;28;19918;-87
2022/08/27 15:41:24;;;;;;;;;;;;;;;;;;5009488;28;19960;-85
2022/08/27 15:43:54;;;;;;;;;;;;;;;;;;5013836;28;19916;-85
2022/08/27 15:46:32;;;;;;;;;;;;;;;;;;;;;
2022/08/27 15:52:05;;;;;;;;;;;;;;;;;;5003000;28;19921;-85
2022/08/27 16:00:15;;;;;;;;;;;;;;;;;;;;;
2022/08/27 16:02:43;;;;;;;;;;;;;;;;;;4967638;28;19917;-85
2022/08/27 16:05:27;;;;;;;;;;;;;;;;;;;;;
2022/08/27 16:16:27;;;;;;;;;;;;;;;;;;4986671;28;19917;-85
2022/08/27 16:21:51;;;;;;;;;;;;;;;;;;5002338;28;19924;-85
2022/08/27 16:24:30;;;;;;;;;;;;;;;;;;;;;
2022/08/27 16:26:56;;;;;;;;;;;;;;;;;;5006131;28;19920;-84
2022/08/27 16:29:31;;;;;;;;;;;;;;;;;;;;;
2022/08/27 16:38:05;;;;;;;;;;;;;;;;;;;;;
2022/08/27 16:56:35;;;;;;;;;;;;;;;;;;;;;
2022/08/27 16:59:11;;;;;;;;;;;;;;;;;;;;;
2022/08/27 17:10:15;;;;;;;;;;;;;;;;;;4977534;28;19914;-84
2022/08/27 17:18:27;;;;;;;;;;;;;;;;;;5004572;28;20283;-85
2022/08/27 17:20:55;;;;;;;;;;;;;;;;;;5002236;28;20371;-85
2022/08/27 17:23:33;;;;;;;;;;;;;;;;;;;;;
2022/08/27 17:26:01;;;;;;;;;;;;;;;;;;4990930;28;19940;-85
2022/08/27 17:28:39;;;;;;;;;;;;;;;;;;;;;
2022/08/27 17:31:27;;;;;;;;;;;;;;;;;;5007155;28;20501;-86
2022/08/27 17:33:53;;;;;;;;;;;;;;;;;;5011474;28;19909;-85
2022/08/27 17:42:05;;;;;;;;;;;;;;;;;;4974850;28;19910;-86
2022/08/27 17:50:16;;;;;;;;;;;;;;;;;;5000895;28;19941;-87
2022/08/27 17:58:12;;;;;;;;;;;;;;;;;;5005234;28;19924;-86
2022/08/27 18:00:51;;;;;;;;;;;;;;;;;;;;;
2022/08/27 18:06:04;;;;;;;;;;;;;;;;;;5011714;28;20294;-86
2022/08/27 18:14:47;;;;;;;;;;;;;;;;;;5012536;28;19956;-85
2022/08/27 18:16:56;;;;;;;;;;;;;;;;;;5005716;28;19910;-86
2022/08/27 18:19:40;;;;;;;;;;;;;;;;;;;;;
2022/08/27 18:22:15;;;;;;;;;;;;;;;;;;4991431;28;19920;-85
2022/08/27 18:24:40;;;;;;;;;;;;;;;;;;5012405;28;20445;-85
2022/08/27 18:30:08;;;;;;;;;;;;;;;;;;4971615;28;20287;-87
2022/08/27 18:32:33;;;;;;;;;;;;;;;;;;4988492;28;19968;-86
2022/08/27 18:35:01;;;;;;;;;;;;;;;;;;4999686;28;19914;-86
2022/08/27 18:37:44;;;;;;;;;;;;;;;;;;4993730;28;19910;-85
2022/08/27 18:40:12;;;;;;;;;;;;;;;;;;5016569;28;19916;-87
2022/08/27 18:42:39;;;;;;;;;;;;;;;;;;5015639;28;19916;-85
2022/08/27 18:45:22;;;;;;;;;;;;;;;;;;5007371;28;19977;-86
2022/08/27 18:47:47;;;;;;;;;;;;;;;;;;4997027;28;20012;-85
2022/08/27 18:50:20;;;;;;;;;;;;;;;;;;4996378;28;19988;-86
2022/08/27 19:03:52;;;;;;;;;;;;;;;;;;5035890;28;20362;-87
2022/08/27 19:06:19;;;;;;;;;;;;;;;;;;5035647;28;19928;-86
2022/08/27 19:08:49;;;;;;;;;;;;;;;;;;5035369;28;19964;-87
2022/08/27 19:11:23;;;;;;;;;;;;;;;;;;5034787;28;20417;-86
2022/08/27 19:13:59;;;;;;;;;;;;;;;;;;5015729;28;19961;-87
2022/08/27 19:16:26;;;;;;;;;;;;;;;;;;5015996;28;19909;-87
2022/08/27 19:18:52;;;;;;;;;;;;;;;;;;4998218;28;19945;-87
2022/08/27 19:21:19;;;;;;;;;;;;;;;;;;5016082;28;19941;-86
2022/08/27 19:23:57;;;;;;;;;;;;;;;;;;;;;
2022/08/27 19:26:23;;;;;;;;;;;;;;;;;;5015634;28;19931;-87
2022/08/27 19:31:35;;;;;;;;;;;;;;;;;;5001447;28;20294;-86
2022/08/27 19:34:03;;;;;;;;;;;;;;;;;;5015289;28;19917;-86
2022/08/27 19:36:31;;;;;;;;;;;;;;;;;;5014311;28;19910;-86
2022/08/27 19:38:56;;;;;;;;;;;;;;;;;;5015290;28;19913;-86
2022/08/27 19:41:21;;;;;;;;;;;;;;;;;;5014709;28;19916;-85
2022/08/27 19:43:49;;;;;;;;;;;;;;;;;;5014635;28;20295;-86
2022/08/27 19:46:17;;;;;;;;;;;;;;;;;;5015189;28;20318;-86
2022/08/27 19:48:54;;;;;;;;;;;;;;;;;;4997177;28;19910;-87
2022/08/27 19:51:19;;;;;;;;;;;;;;;;;;5009828;28;19920;-86
2022/08/27 19:53:44;;;;;;;;;;;;;;;;;;5022238;28;19914;-86
2022/08/27 19:56:11;;;;;;;;;;;;;;;;;;5014986;28;19910;-87
2022/08/27 19:58:37;;;;;;;;;;;;;;;;;;5014284;28;19917;-85
2022/08/27 20:01:02;;;;;;;;;;;;;;;;;;5018675;28;20259;-87
2022/08/27 20:03:27;;;;;;;;;;;;;;;;;;5032484;28;19953;-86
2022/08/27 20:05:52;;;;;;;;;;;;;;;;;;5015097;28;19916;-85
2022/08/27 20:08:20;;;;;;;;;;;;;;;;;;4996944;28;19913;-86
2022/08/27 20:10:46;;;;;;;;;;;;;;;;;;5014087;28;19913;-86
2022/08/27 20:13:14;;;;;;;;;;;;;;;;;;5014739;28;20001;-86
2022/08/27 20:15:48;;;;;;;;;;;;;;;;;;5014168;28;19919;-86
2022/08/27 20:18:13;;;;;;;;;;;;;;;;;;4983631;28;20000;-85
2022/08/27 20:20:38;;;;;;;;;;;;;;;;;;4995091;28;19996;-85
2022/08/27 20:23:06;;;;;;;;;;;;;;;;;;4995105;28;20307;-86
2022/08/27 20:28:23;;;;;;;;;;;;;;;;;;4992965;28;19910;-87
2022/08/27 20:33:36;;;;;;;;;;;;;;;;;;5013477;28;19914;-87
2022/08/27 20:36:03;;;;;;;;;;;;;;;;;;5014447;28;19988;-87
2022/08/27 20:38:38;;;;;;;;;;;;;;;;;;;;;
2022/08/27 20:41:04;;;;;;;;;;;;;;;;;;5011189;28;19940;-86
2022/08/27 20:51:55;;;;;;;;;;;;;;;;;;4957726;28;19918;-87
2022/08/27 20:54:28;;;;;;;;;;;;;;;;;;4976768;28;19910;-88
2022/08/27 20:56:53;;;;;;;;;;;;;;;;;;4994729;28;19929;-88
2022/08/27 21:02:03;;;;;;;;;;;;;;;;;;5013047;28;19921;-88
2022/08/27 21:04:29;;;;;;;;;;;;;;;;;;5013480;28;19924;-88
2022/08/27 21:06:56;;;;;;;;;;;;;;;;;;5014691;28;19956;-91
2022/08/27 21:12:07;;;;;;;;;;;;;;;;;;5006283;28;20367;-87
2022/08/27 21:14:35;;;;;;;;;;;;;;;;;;5016081;28;19917;-87
2022/08/27 21:19:59;;;;;;;;;;;;;;;;;;5030336;28;19909;-88
2022/08/27 21:22:37;;;;;;;;;;;;;;;;;;;;;
2022/08/27 21:28:11;;;;;;;;;;;;;;;;;;4972404;28;19910;-87
2022/08/27 21:30:43;;;;;;;;;;;;;;;;;;4972091;28;19914;-87
2022/08/27 21:33:32;;;;;;;;;;;;;;;;;;5029488;28;19952;-87
2022/08/27 21:41:52;;;;;;;;;;;;;;;;;;4952196;28;19914;-88
2022/08/27 21:44:17;;;;;;;;;;;;;;;;;;4961571;28;19933;-90
2022/08/27 21:46:43;;;;;;;;;;;;;;;;;;4995045;28;20525;-88
2022/08/27 21:49:08;;;;;;;;;;;;;;;;;;4992018;28;19909;-87
2022/08/27 21:51:33;;;;;;;;;;;;;;;;;;4992666;28;19968;-88
2022/08/27 21:53:58;;;;;;;;;;;;;;;;;;4991939;28;19909;-88
2022/08/27 21:56:23;;;;;;;;;;;;;;;;;;4992101;28;19937;-89
2022/08/27 21:58:49;;;;;;;;;;;;;;;;;;4991695;28;19917;-88
2022/08/27 22:01:14;;;;;;;;;;;;;;;;;;4974705;28;19910;-87
2022/08/27 22:03:39;;;;;;;;;;;;;;;;;;4991972;28;19910;-87
2022/08/27 22:06:06;;;;;;;;;;;;;;;;;;4991191;28;19917;-87
2022/08/27 22:08:32;;;;;;;;;;;;;;;;;;4992027;28;20388;-87
2022/08/27 22:10:57;;;;;;;;;;;;;;;;;;4991719;28;19948;-87
2022/08/27 22:13:22;;;;;;;;;;;;;;;;;;4992146;28;19956;-87
2022/08/27 22:15:48;;;;;;;;;;;;;;;;;;4992055;28;19914;-88
2022/08/27 22:18:13;;;;;;;;;;;;;;;;;;4991899;28;19910;-88
2022/08/27 22:20:38;;;;;;;;;;;;;;;;;;4991680;28;19988;-87
2022/08/27 22:23:03;;;;;;;;;;;;;;;;;;4991604;28;19910;-87
2022/08/27 22:25:28;;;;;;;;;;;;;;;;;;4991789;28;19914;-88
2022/08/27 22:27:54;;;;;;;;;;;;;;;;;;4996337;28;20339;-86
2022/08/27 22:30:19;;;;;;;;;;;;;;;;;;4999454;28;19920;-86
2022/08/27 22:32:44;;;;;;;;;;;;;;;;;;4997110;28;19921;-86
2022/08/27 22:35:09;;;;;;;;;;;;;;;;;;4999911;28;19913;-85
2022/08/27 22:37:34;;;;;;;;;;;;;;;;;;5002089;28;19920;-85
2022/08/27 22:39:59;;;;;;;;;;;;;;;;;;4996323;28;19914;-85
2022/08/27 22:42:25;;;;;;;;;;;;;;;;;;5001259;28;19918;-85
2022/08/27 22:44:50;;;;;;;;;;;;;;;;;;5019034;28;20398;-85
2022/08/27 22:47:15;;;;;;;;;;;;;;;;;;5005870;28;19977;-86
2022/08/27 22:49:42;;;;;;;;;;;;;;;;;;5001327;28;20211;-86
2022/08/27 22:52:07;;;;;;;;;;;;;;;;;;5000775;28;19918;-85
2022/08/27 22:54:33;;;;;;;;;;;;;;;;;;5001296;28;20367;-85
2022/08/27 22:56:58;;;;;;;;;;;;;;;;;;4991694;28;20012;-86
2022/08/27 22:59:23;;;;;;;;;;;;;;;;;;5001225;28;19917;-87
2022/08/27 23:01:48;;;;;;;;;;;;;;;;;;5011352;28;20009;-86
2022/08/27 23:04:13;;;;;;;;;;;;;;;;;;5012647;28;20442;-85
2022/08/27 23:06:38;;;;;;;;;;;;;;;;;;4999571;28;19948;-86
2022/08/27 23:09:03;;;;;;;;;;;;;;;;;;5001561;28;19914;-85
2022/08/27 23:11:30;;;;;;;;;;;;;;;;;;4998711;28;19965;-84
2022/08/27 23:13:55;;;;;;;;;;;;;;;;;;5002584;28;19913;-85
2022/08/27 23:16:20;;;;;;;;;;;;;;;;;;5001656;28;20295;-85
2022/08/27 23:18:45;;;;;;;;;;;;;;;;;;5000220;28;19975;-85
2022/08/27 23:21:11;;;;;;;;;;;;;;;;;;5005357;28;20380;-85
2022/08/27 23:23:36;;;;;;;;;;;;;;;;;;4999242;28;19959;-86
2022/08/27 23:28:45;;;;;;;;;;;;;;;;;;4999907;28;19928;-86
2022/08/27 23:31:10;;;;;;;;;;;;;;;;;;4996147;28;19918;-87
2022/08/27 23:33:35;;;;;;;;;;;;;;;;;;5013740;28;19914;-87
2022/08/27 23:36:00;;;;;;;;;;;;;;;;;;5013221;28;19932;-87
2022/08/27 23:38:26;;;;;;;;;;;;;;;;;;5013096;28;19921;-87
2022/08/27 23:40:52;;;;;;;;;;;;;;;;;;5003325;28;20012;-86
2022/08/27 23:43:17;;;;;;;;;;;;;;;;;;5002180;28;19921;-85
2022/08/27 23:45:42;;;;;;;;;;;;;;;;;;5011060;28;20363;-85
2022/08/27 23:48:07;;;;;;;;;;;;;;;;;;5010498;28;19913;-85
2022/08/27 23:50:33;;;;;;;;;;;;;;;;;;5010636;28;19921;-85
2022/08/27 23:52:59;;;;;;;;;;;;;;;;;;5010516;28;20394;-85
2022/08/27 23:55:24;;;;;;;;;;;;;;;;;;5005518;28;19918;-85
2022/08/27 23:57:50;;;;;;;;;;;;;;;;;;5014266;28;20430;-85
